createdAt,value
2022-10-23T00:00:19.780Z,97320.94
2022-10-23T00:02:53.491Z,97322.88
2022-10-23T00:05:21.829Z,97296.06
2022-10-23T00:07:53.548Z,97322.75
2022-10-23T00:10:22.303Z,97317.94
2022-10-23T00:12:49.944Z,97329.09
2022-10-23T00:15:20.458Z,97308.25
2022-10-23T00:17:47.872Z,97313.09
2022-10-23T00:20:16.184Z,97320.56
2022-10-23T00:22:43.047Z,97318.22
2022-10-23T00:25:10.919Z,97313.38
2022-10-23T00:27:39.478Z,97310.75
2022-10-23T00:30:07.163Z,97304.81
2022-10-23T00:32:34.088Z,97293.00
2022-10-23T00:35:01.101Z,97293.59
2022-10-23T00:37:30.136Z,97297.16
2022-10-23T00:39:57.740Z,97269.03
2022-10-23T00:42:24.884Z,97265.53
2022-10-23T00:44:51.790Z,97301.28
2022-10-23T00:47:18.844Z,97294.88
2022-10-23T00:49:45.797Z,97264.84
2022-10-23T00:52:14.582Z,97295.84
2022-10-23T00:54:43.650Z,97293.06
2022-10-23T00:57:15.713Z,97300.06
2022-10-23T00:59:43.329Z,97288.00
2022-10-23T01:02:10.598Z,97306.38
2022-10-23T01:04:38.093Z,97310.66
2022-10-23T01:07:35.779Z,97309.72
2022-10-23T01:10:50.654Z,97317.56
2022-10-23T01:13:54.858Z,97305.06
2022-10-23T01:16:41.117Z,97306.28
2022-10-23T01:19:45.695Z,97295.63
2022-10-23T01:23:06.861Z,97292.28
2022-10-23T01:25:53.580Z,97300.06
2022-10-23T01:28:51.999Z,97315.84
2022-10-23T01:31:59.114Z,97305.91
2022-10-23T01:34:37.311Z,97287.41
2022-10-23T01:37:11.447Z,97287.81
2022-10-23T01:39:47.549Z,97296.66
2022-10-23T01:42:36.243Z,97302.13
2022-10-23T01:45:28.174Z,97290.69
2022-10-23T01:47:56.665Z,97308.28
2022-10-23T01:50:25.704Z,97294.44
2022-10-23T01:52:59.759Z,97304.34
2022-10-23T01:55:27.112Z,97279.63
2022-10-23T01:57:56.761Z,97296.94
2022-10-23T02:00:27.608Z,97308.97
2022-10-23T02:02:56.154Z,97309.72
2022-10-23T02:05:31.533Z,97304.81
2022-10-23T02:08:01.051Z,97298.88
2022-10-23T02:10:38.900Z,97302.38
2022-10-23T02:13:09.210Z,97318.72
2022-10-23T02:15:48.805Z,97311.31
2022-10-23T02:18:18.136Z,97309.78
2022-10-23T02:21:06.298Z,97318.97
2022-10-23T02:23:41.903Z,97297.28
2022-10-23T02:26:22.159Z,97304.22
2022-10-23T02:28:58.520Z,97314.97
2022-10-23T02:31:26.175Z,97310.94
2022-10-23T02:33:53.740Z,97321.72
2022-10-23T02:36:20.625Z,97315.63
2022-10-23T02:38:47.575Z,97318.72
2022-10-23T02:41:41.805Z,97321.50
2022-10-23T02:44:39.469Z,97335.97
2022-10-23T02:47:17.054Z,97327.25
2022-10-23T02:50:16.427Z,97342.88
2022-10-23T02:52:47.942Z,97329.16
2022-10-23T02:55:19.573Z,97341.84
2022-10-23T02:58:04.240Z,97345.06
2022-10-23T03:00:36.071Z,97360.84
2022-10-23T03:03:12.685Z,97353.00
2022-10-23T03:05:41.680Z,97348.13
2022-10-23T03:08:10.649Z,97335.06
2022-10-23T03:10:38.268Z,97353.69
2022-10-23T03:13:07.123Z,97360.66
2022-10-23T03:15:41.172Z,97371.34
2022-10-23T03:18:14.329Z,97355.94
2022-10-23T03:20:46.266Z,97364.97
2022-10-23T03:23:15.125Z,97373.72
2022-10-23T03:25:43.486Z,97336.66
2022-10-23T03:28:20.668Z,97365.47
2022-10-23T03:30:47.909Z,97373.38
2022-10-23T03:33:14.866Z,97379.06
2022-10-23T03:35:41.838Z,97366.81
2022-10-23T03:38:09.521Z,97362.13
2022-10-23T03:40:36.501Z,97368.84
2022-10-23T03:43:03.472Z,97346.38
2022-10-23T03:45:30.988Z,97336.63
2022-10-23T03:47:58.094Z,97348.09
2022-10-23T03:50:25.811Z,97358.91
2022-10-23T03:52:54.219Z,97341.31
2022-10-23T03:55:21.256Z,97341.56
2022-10-23T03:57:48.157Z,97340.31
2022-10-23T04:00:15.334Z,97348.13
2022-10-23T04:02:47.074Z,97331.59
2022-10-23T04:05:14.779Z,97350.13
2022-10-23T04:07:50.868Z,97345.06
2022-10-23T04:10:18.542Z,97337.78
2022-10-23T04:12:45.925Z,97340.16
2022-10-23T04:15:13.106Z,97347.44
2022-10-23T04:17:42.679Z,97332.81
2022-10-23T04:20:10.874Z,97325.69
2022-10-23T04:22:38.435Z,97344.28
2022-10-23T04:25:05.734Z,97343.38
2022-10-23T04:27:34.528Z,97337.75
2022-10-23T04:30:03.733Z,97344.34
2022-10-23T04:32:31.579Z,97327.41
2022-10-23T04:34:59.366Z,97331.94
2022-10-23T04:37:26.649Z,97340.16
2022-10-23T04:39:53.705Z,97320.16
2022-10-23T04:42:20.882Z,97345.66
2022-10-23T04:44:47.844Z,97346.13
2022-10-23T04:47:14.800Z,97339.81
2022-10-23T04:49:59.790Z,97339.25
2022-10-23T04:52:58.943Z,97359.31
2022-10-23T04:55:58.030Z,97353.72
2022-10-23T04:58:35.855Z,97365.22
2022-10-23T05:01:02.830Z,97364.81
2022-10-23T05:03:29.992Z,97365.34
2022-10-23T05:05:57.353Z,97360.94
2022-10-23T05:08:31.702Z,97336.75
2022-10-23T05:11:17.305Z,97328.03
2022-10-23T05:13:47.665Z,97370.34
2022-10-23T05:16:36.060Z,97386.00
2022-10-23T05:19:05.824Z,97395.81
2022-10-23T05:21:35.673Z,97386.63
2022-10-23T05:24:05.902Z,97391.63
2022-10-23T05:26:33.036Z,97392.94
2022-10-23T05:29:06.349Z,97395.41
2022-10-23T05:31:35.448Z,97390.13
2022-10-23T05:34:13.358Z,97377.91
2022-10-23T05:36:45.785Z,97391.22
2022-10-23T05:39:15.084Z,97403.53
2022-10-23T05:41:50.189Z,97404.72
2022-10-23T05:44:22.281Z,97401.47
2022-10-23T05:47:08.376Z,97395.13
2022-10-23T05:49:54.338Z,97393.00
2022-10-23T05:52:49.681Z,97396.19
2022-10-23T05:55:49.106Z,97401.41
2022-10-23T05:58:30.899Z,97421.59
2022-10-23T06:01:13.946Z,97427.50
2022-10-23T06:04:05.232Z,97422.50
2022-10-23T06:06:59.453Z,97437.81
2022-10-23T06:09:26.495Z,97436.25
2022-10-23T06:11:57.456Z,97445.50
2022-10-23T06:14:24.438Z,97451.47
2022-10-23T06:16:52.412Z,97434.50
2022-10-23T06:19:20.528Z,97454.91
2022-10-23T06:21:51.826Z,97467.94
2022-10-23T06:24:19.505Z,97461.38
2022-10-23T06:26:55.978Z,97458.50
2022-10-23T06:29:42.045Z,97455.03
2022-10-23T06:32:09.043Z,97466.41
2022-10-23T06:34:37.239Z,97439.25
2022-10-23T06:37:06.853Z,97474.88
2022-10-23T06:39:49.828Z,97463.19
2022-10-23T06:42:19.769Z,97465.91
2022-10-23T06:44:56.127Z,97478.13
2022-10-23T06:47:45.750Z,97473.94
2022-10-23T06:50:49.027Z,97486.56
2022-10-23T06:53:24.825Z,97506.94
2022-10-23T06:56:01.573Z,97498.22
2022-10-23T06:58:29.193Z,97490.31
2022-10-23T07:01:07.235Z,97481.81
2022-10-23T07:03:35.153Z,97490.66
2022-10-23T07:06:08.228Z,97501.91
2022-10-23T07:08:36.987Z,97493.91
2022-10-23T07:11:13.006Z,97496.75
2022-10-23T07:13:40.792Z,97490.63
2022-10-23T07:16:17.992Z,97480.59
2022-10-23T07:18:46.087Z,97501.16
2022-10-23T07:21:40.201Z,97496.97
2022-10-23T07:24:37.086Z,97492.22
2022-10-23T07:27:16.293Z,97502.13
2022-10-23T07:29:44.467Z,97480.38
2022-10-23T07:32:11.903Z,97502.13
2022-10-23T07:34:59.181Z,97487.25
2022-10-23T07:37:31.025Z,97489.91
2022-10-23T07:40:00.675Z,97490.59
2022-10-23T07:42:27.922Z,97490.44
2022-10-23T07:44:55.090Z,97489.72
2022-10-23T07:47:22.835Z,97488.78
2022-10-23T07:49:51.860Z,97480.50
2022-10-23T07:52:20.400Z,97485.44
2022-10-23T07:55:10.266Z,97509.63
2022-10-23T07:57:41.460Z,97515.22
2022-10-23T08:00:22.112Z,97487.13
2022-10-23T08:02:56.713Z,97502.47
2022-10-23T08:05:23.910Z,97489.03
2022-10-23T08:07:57.832Z,97505.09
2022-10-23T08:10:25.098Z,97503.47
2022-10-23T08:12:52.538Z,97534.22
2022-10-23T08:15:25.510Z,97505.03
2022-10-23T08:17:59.495Z,97504.53
2022-10-23T08:20:48.655Z,97486.81
2022-10-23T08:23:18.669Z,97522.03
2022-10-23T08:25:46.902Z,97515.53
2022-10-23T08:28:18.007Z,97513.50
2022-10-23T08:30:54.509Z,97467.09
2022-10-23T08:33:23.439Z,97511.78
2022-10-23T08:35:51.065Z,97491.41
2022-10-23T08:38:30.427Z,97507.63
2022-10-23T08:40:58.146Z,97484.91
2022-10-23T08:43:49.296Z,97503.66
2022-10-23T08:46:37.648Z,97499.38
2022-10-23T08:49:57.691Z,97496.31
2022-10-23T08:52:52.403Z,97504.66
2022-10-23T08:55:35.915Z,97507.78
2022-10-23T08:58:46.035Z,97504.91
2022-10-23T09:01:45.340Z,97512.25
2022-10-23T09:04:14.313Z,97480.66
2022-10-23T09:07:16.177Z,97518.09
2022-10-23T09:10:02.770Z,97409.25
2022-10-23T09:12:31.906Z,97506.47
2022-10-23T09:15:28.481Z,97522.34
2022-10-23T09:18:02.143Z,97514.25
2022-10-23T09:20:34.443Z,97522.41
2022-10-23T09:23:23.786Z,97519.53
2022-10-23T09:25:58.078Z,97500.72
2022-10-23T09:28:39.731Z,97516.88
2022-10-23T09:31:13.008Z,97505.78
2022-10-23T09:33:41.747Z,97542.00
2022-10-23T09:36:12.669Z,97515.53
2022-10-23T09:38:45.615Z,97527.69
2022-10-23T09:41:29.017Z,97553.31
2022-10-23T09:44:23.168Z,97523.63
2022-10-23T09:46:54.012Z,97492.28
2022-10-23T09:49:32.463Z,97521.69
2022-10-23T09:52:02.235Z,97527.66
2022-10-23T09:54:39.122Z,97521.31
2022-10-23T09:57:20.962Z,97525.03
2022-10-23T09:59:53.344Z,97516.31
2022-10-23T10:02:28.220Z,97500.59
2022-10-23T10:05:26.498Z,97513.19
2022-10-23T10:08:19.928Z,97502.44
2022-10-23T10:11:12.413Z,97501.25
2022-10-23T10:13:58.705Z,97487.09
2022-10-23T10:16:44.421Z,97495.88
2022-10-23T10:19:48.669Z,97497.69
2022-10-23T10:22:46.667Z,97497.56
2022-10-23T10:25:38.929Z,97498.81
2022-10-23T10:28:25.140Z,97507.63
2022-10-23T10:31:05.153Z,97476.44
2022-10-23T10:33:37.975Z,97480.53
2022-10-23T10:36:10.963Z,97478.25
2022-10-23T10:38:47.976Z,97487.34
2022-10-23T10:41:38.418Z,97486.06
2022-10-23T10:44:30.108Z,97466.88
2022-10-23T10:47:05.670Z,97473.75
2022-10-23T10:50:18.860Z,97486.56
2022-10-23T10:53:33.314Z,97456.13
2022-10-23T10:56:04.091Z,97454.25
2022-10-23T10:59:03.871Z,97460.06
2022-10-23T11:01:39.333Z,97453.69
2022-10-23T11:04:46.177Z,97460.22
2022-10-23T11:07:17.410Z,97479.09
2022-10-23T11:09:44.614Z,97427.69
2022-10-23T11:12:24.046Z,97423.44
2022-10-23T11:14:51.461Z,97433.66
2022-10-23T11:17:25.377Z,97449.75
2022-10-23T11:20:24.586Z,97424.03
2022-10-23T11:23:13.594Z,97426.84
2022-10-23T11:25:49.308Z,97452.56
2022-10-23T11:28:37.395Z,97432.13
2022-10-23T11:31:23.305Z,97429.22
2022-10-23T11:34:24.339Z,97410.19
2022-10-23T11:36:56.951Z,97414.78
2022-10-23T11:39:27.865Z,97414.22
2022-10-23T11:42:14.879Z,97403.34
2022-10-23T11:44:45.302Z,97427.84
2022-10-23T11:47:31.327Z,97409.50
2022-10-23T11:50:06.720Z,97416.84
2022-10-23T11:52:45.456Z,97396.94
2022-10-23T11:55:22.922Z,97411.16
2022-10-23T11:58:10.471Z,97403.63
2022-10-23T12:00:51.258Z,97432.28
2022-10-23T12:03:43.291Z,97416.81
2022-10-23T12:06:30.135Z,97418.91
2022-10-23T12:12:01.421Z,97423.53
2022-10-23T12:14:32.406Z,97419.75
2022-10-23T12:16:59.916Z,97416.13
2022-10-23T12:19:30.298Z,97405.84
2022-10-23T12:22:00.859Z,97403.06
2022-10-23T12:24:51.600Z,97393.50
2022-10-23T12:27:18.443Z,97416.97
2022-10-23T12:29:54.433Z,97412.25
2022-10-23T12:32:59.747Z,97422.25
2022-10-23T12:36:04.703Z,97418.91
2022-10-23T12:38:35.312Z,97412.13
2022-10-23T12:41:14.389Z,97424.19
2022-10-23T12:43:45.714Z,97427.53
2022-10-23T12:46:41.174Z,97426.84
2022-10-23T12:49:22.781Z,97453.78
2022-10-23T12:52:05.535Z,97428.69
2022-10-23T12:54:38.338Z,97455.38
2022-10-23T12:57:30.415Z,97442.84
2022-10-23T13:00:13.323Z,97437.81
2022-10-23T13:02:40.547Z,97448.38
2022-10-23T13:05:13.296Z,97437.41
2022-10-23T13:07:46.417Z,97447.97
2022-10-23T13:10:18.741Z,97435.22
2022-10-23T13:13:20.274Z,97407.03
2022-10-23T13:15:47.725Z,97409.63
2022-10-23T13:18:15.969Z,97426.75
2022-10-23T13:21:03.485Z,97434.16
2022-10-23T13:23:33.526Z,97439.59
2022-10-23T13:26:01.711Z,97452.38
2022-10-23T13:28:36.278Z,97447.25
2022-10-23T13:31:35.745Z,97460.84
2022-10-23T13:34:06.562Z,97447.22
2022-10-23T13:36:57.750Z,97454.19
2022-10-23T13:39:28.231Z,97454.91
2022-10-23T13:41:55.279Z,97445.03
2022-10-23T13:44:27.537Z,97433.84
2022-10-23T13:47:07.417Z,97443.66
2022-10-23T13:49:34.689Z,97450.13
2022-10-23T13:52:01.636Z,97459.50
2022-10-23T13:54:29.627Z,97443.72
2022-10-23T13:56:59.319Z,97460.25
2022-10-23T13:59:26.282Z,97453.19
2022-10-23T14:01:54.548Z,97457.16
2022-10-23T14:04:22.136Z,97451.66
2022-10-23T14:06:49.331Z,97448.44
2022-10-23T14:09:18.367Z,97450.81
2022-10-23T14:11:46.077Z,97446.06
2022-10-23T14:14:13.652Z,97442.31
2022-10-23T14:16:40.574Z,97455.72
2022-10-23T14:19:08.919Z,97443.81
2022-10-23T14:21:36.116Z,97451.72
2022-10-23T14:24:03.914Z,97437.38
2022-10-23T14:26:32.953Z,97433.69
2022-10-23T14:29:04.164Z,97427.75
2022-10-23T14:31:35.506Z,97466.69
2022-10-23T14:34:02.432Z,97465.00
2022-10-23T14:36:38.680Z,97463.31
2022-10-23T14:39:16.924Z,97464.81
2022-10-23T14:41:45.326Z,97469.31
2022-10-23T14:44:12.426Z,97474.38
2022-10-23T14:46:39.414Z,97466.78
2022-10-23T14:49:06.330Z,97468.63
2022-10-23T14:51:33.827Z,97470.56
2022-10-23T14:54:05.668Z,97473.69
2022-10-23T14:56:39.481Z,97468.72
2022-10-23T14:59:10.896Z,97470.38
2022-10-23T15:01:43.756Z,97465.75
2022-10-23T15:04:15.150Z,97478.34
2022-10-23T15:06:42.811Z,97495.53
2022-10-23T15:09:11.219Z,97489.94
2022-10-23T15:11:40.874Z,97490.91
2022-10-23T15:14:08.154Z,97474.88
2022-10-23T15:16:44.113Z,97465.69
2022-10-23T15:19:17.094Z,97488.28
2022-10-23T15:21:46.981Z,97490.34
2022-10-23T15:24:18.766Z,97459.59
2022-10-23T15:26:47.421Z,97482.78
2022-10-23T15:29:15.009Z,97477.50
2022-10-23T15:31:43.577Z,97486.91
2022-10-23T15:34:22.258Z,97494.72
2022-10-23T15:36:52.181Z,97496.72
2022-10-23T15:39:23.304Z,97482.69
2022-10-23T15:41:52.861Z,97503.88
2022-10-23T15:44:23.411Z,97493.25
2022-10-23T15:46:54.226Z,97491.69
2022-10-23T15:49:22.258Z,97489.44
2022-10-23T15:51:49.163Z,97484.84
2022-10-23T15:54:20.249Z,97493.69
2022-10-23T15:56:51.307Z,97492.69
2022-10-23T15:59:20.580Z,97514.97
2022-10-23T16:01:48.258Z,97507.78
2022-10-23T16:04:17.909Z,97509.69
2022-10-23T16:06:45.095Z,97515.41
2022-10-23T16:09:13.817Z,97524.25
2022-10-23T16:11:42.529Z,97526.88
2022-10-23T16:14:14.139Z,97517.28
2022-10-23T16:16:42.466Z,97523.84
2022-10-23T16:19:10.412Z,97545.97
2022-10-23T16:21:37.822Z,97510.75
2022-10-23T16:24:07.655Z,97542.38
2022-10-23T16:26:36.259Z,97537.81
2022-10-23T16:29:07.928Z,97545.69
2022-10-23T16:31:35.561Z,97530.72
2022-10-23T16:34:04.759Z,97559.38
2022-10-23T16:36:35.595Z,97557.00
2022-10-23T16:39:23.490Z,97550.63
2022-10-23T16:42:09.187Z,97552.63
2022-10-23T16:45:09.527Z,97572.50
2022-10-23T16:47:36.498Z,97566.50
2022-10-23T16:50:08.427Z,97567.22
2022-10-23T16:52:35.452Z,97575.94
2022-10-23T16:55:02.485Z,97567.69
2022-10-23T16:57:31.466Z,97584.03
2022-10-23T16:59:58.581Z,97580.81
2022-10-23T17:02:27.675Z,97589.75
2022-10-23T17:04:55.635Z,97586.06
2022-10-23T17:07:24.418Z,97588.25
2022-10-23T17:09:51.657Z,97594.16
2022-10-23T17:12:22.245Z,97600.41
2022-10-23T17:14:49.182Z,97608.09
2022-10-23T17:17:17.205Z,97609.25
2022-10-23T17:19:46.204Z,97603.47
2022-10-23T17:22:14.432Z,97603.34
2022-10-23T17:24:44.311Z,97618.75
2022-10-23T17:27:14.683Z,97606.78
2022-10-23T17:29:42.412Z,97628.47
2022-10-23T17:32:12.302Z,97627.53
2022-10-23T17:34:39.524Z,97609.94
2022-10-23T17:37:08.026Z,97615.50
2022-10-23T17:39:36.072Z,97620.59
2022-10-23T17:42:02.981Z,97634.41
2022-10-23T17:44:30.233Z,97635.56
2022-10-23T17:46:58.350Z,97621.38
2022-10-23T17:49:26.203Z,97623.78
2022-10-23T17:51:55.314Z,97635.28
2022-10-23T17:54:24.369Z,97621.88
2022-10-23T17:56:51.425Z,97620.09
2022-10-23T17:59:19.738Z,97619.84
2022-10-23T18:01:48.570Z,97629.44
2022-10-23T18:04:17.986Z,97631.47
2022-10-23T18:06:48.532Z,97616.81
2022-10-23T18:09:16.371Z,97615.19
2022-10-23T18:11:48.827Z,97635.94
2022-10-23T18:14:19.184Z,97629.81
2022-10-23T18:16:46.964Z,97625.47
2022-10-23T18:19:18.209Z,97624.47
2022-10-23T18:21:45.579Z,97626.38
2022-10-23T18:24:12.810Z,97629.00
2022-10-23T18:26:42.686Z,97636.47
2022-10-23T18:29:12.396Z,97634.25
2022-10-23T18:31:39.681Z,97640.25
2022-10-23T18:34:16.204Z,97648.06
2022-10-23T18:36:44.113Z,97650.78
2022-10-23T18:39:14.322Z,97643.66
2022-10-23T18:41:43.292Z,97655.41
2022-10-23T18:44:17.375Z,97648.91
2022-10-23T18:46:49.017Z,97653.31
2022-10-23T18:49:18.401Z,97653.03
2022-10-23T18:51:47.636Z,97652.19
2022-10-23T18:54:16.280Z,97650.41
2022-10-23T18:56:45.835Z,97658.28
2022-10-23T18:59:17.968Z,97647.78
2022-10-23T19:01:45.244Z,97652.69
2022-10-23T19:04:16.701Z,97660.28
2022-10-23T19:06:45.180Z,97663.28
2022-10-23T19:09:16.513Z,97662.03
2022-10-23T19:11:44.164Z,97655.72
2022-10-23T19:14:15.070Z,97655.50
2022-10-23T19:16:53.422Z,97662.63
2022-10-23T19:19:25.793Z,97668.16
2022-10-23T19:21:55.228Z,97661.38
2022-10-23T19:24:39.770Z,97668.72
2022-10-23T19:27:07.598Z,97660.66
2022-10-23T19:29:40.196Z,97658.19
2022-10-23T19:32:07.627Z,97665.25
2022-10-23T19:34:35.121Z,97665.88
2022-10-23T19:37:02.199Z,97670.72
2022-10-23T19:39:29.944Z,97672.31
2022-10-23T19:41:57.828Z,97668.31
2022-10-23T19:44:25.163Z,97674.31
2022-10-23T19:46:52.387Z,97682.06
2022-10-23T19:49:19.618Z,97668.34
2022-10-23T19:51:51.217Z,97679.09
2022-10-23T19:54:20.386Z,97684.53
2022-10-23T19:56:48.075Z,97679.09
2022-10-23T19:59:16.761Z,97691.53
2022-10-23T20:01:47.856Z,97693.09
2022-10-23T20:04:17.794Z,97675.72
2022-10-23T20:06:44.807Z,97679.22
2022-10-23T20:09:11.772Z,97673.25
2022-10-23T20:11:41.045Z,97695.75
2022-10-23T20:14:08.407Z,97696.56
2022-10-23T20:16:38.099Z,97693.13
2022-10-23T20:19:08.004Z,97694.78
2022-10-23T20:21:36.638Z,97690.13
2022-10-23T20:24:04.089Z,97696.22
2022-10-23T20:26:33.556Z,97690.25
2022-10-23T20:29:01.554Z,97716.19
2022-10-23T20:31:30.770Z,97708.00
2022-10-23T20:33:58.366Z,97704.63
2022-10-23T20:36:29.905Z,97701.81
2022-10-23T20:38:58.458Z,97708.28
2022-10-23T20:41:27.139Z,97707.03
2022-10-23T20:43:58.245Z,97704.25
2022-10-23T20:46:26.093Z,97719.25
2022-10-23T20:48:54.175Z,97715.44
2022-10-23T20:51:23.333Z,97721.88
2022-10-23T20:53:54.581Z,97718.75
2022-10-23T20:56:31.419Z,97711.47
2022-10-23T20:59:03.846Z,97724.44
2022-10-23T21:01:33.431Z,97728.44
2022-10-23T21:04:03.323Z,97719.22
2022-10-23T21:06:51.524Z,97707.59
2022-10-23T21:09:22.550Z,97716.16
2022-10-23T21:11:49.882Z,97722.91
2022-10-23T21:14:17.261Z,97721.66
2022-10-23T21:16:47.382Z,97722.72
2022-10-23T21:19:16.051Z,97723.31
2022-10-23T21:21:43.836Z,97720.94
2022-10-23T21:24:15.385Z,97715.41
2022-10-23T21:26:43.420Z,97723.69
2022-10-23T21:29:20.028Z,97715.81
2022-10-23T21:31:59.532Z,97726.78
2022-10-23T21:34:27.391Z,97729.28
2022-10-23T21:37:11.865Z,97724.97
2022-10-23T21:39:39.874Z,97714.91
2022-10-23T21:42:10.219Z,97734.47
2022-10-23T21:44:40.703Z,97732.47
2022-10-23T21:47:07.803Z,97724.13
2022-10-23T21:49:34.915Z,97730.00
2022-10-23T21:52:01.810Z,97734.06
2022-10-23T21:54:28.690Z,97722.91
2022-10-23T21:56:55.688Z,97714.25
2022-10-23T21:59:27.672Z,97726.06
2022-10-23T22:02:00.077Z,97719.91
2022-10-23T22:04:28.883Z,97720.66
2022-10-23T22:06:56.009Z,97714.38
2022-10-23T22:09:23.537Z,97714.47
2022-10-23T22:11:54.555Z,97711.31
2022-10-23T22:14:22.535Z,97716.56
2022-10-23T22:16:49.747Z,97710.91
2022-10-23T22:19:17.674Z,97708.44
2022-10-23T22:21:44.626Z,97725.94
2022-10-23T22:24:11.887Z,97725.75
2022-10-23T22:26:42.973Z,97729.34
2022-10-23T22:29:15.511Z,97714.09
2022-10-23T22:31:45.630Z,97707.09
2022-10-23T22:37:15.765Z,97698.72
2022-10-23T22:39:42.759Z,97706.34
2022-10-23T22:42:10.121Z,97697.63
2022-10-23T22:44:37.265Z,97707.25
2022-10-23T22:47:04.724Z,97718.41
2022-10-23T22:49:31.667Z,97721.56
2022-10-23T22:51:58.616Z,97706.75
2022-10-23T22:54:25.489Z,97716.56
2022-10-23T22:56:54.146Z,97724.13
2022-10-23T22:59:21.022Z,97718.03
2022-10-23T23:01:49.484Z,97723.72
2022-10-23T23:07:12.152Z,97713.66
2022-10-23T23:09:42.454Z,97720.78
2022-10-23T23:12:11.999Z,97711.53
2022-10-23T23:14:41.061Z,97719.66
2022-10-23T23:17:08.794Z,97725.59
2022-10-23T23:19:36.005Z,97724.97
2022-10-23T23:22:04.076Z,97721.78
2022-10-23T23:24:32.237Z,97722.59
2022-10-23T23:26:59.230Z,97719.97
2022-10-23T23:29:28.382Z,97726.28
2022-10-23T23:31:55.391Z,97744.25
2022-10-23T23:34:22.222Z,97736.00
2022-10-23T23:36:49.299Z,97750.50
2022-10-23T23:39:16.797Z,97738.00
2022-10-23T23:41:43.640Z,97743.16
2022-10-23T23:44:10.562Z,97751.06
2022-10-23T23:46:40.104Z,97748.13
2022-10-23T23:49:06.949Z,97743.69
2022-10-23T23:51:33.814Z,97717.91
2022-10-23T23:54:00.699Z,97737.59
2022-10-23T23:56:28.187Z,97734.97
2022-10-23T23:58:55.235Z,97731.03
